Time;durP1;ratioP1;P1;durP2;ratioP2;P2;SDS_P1;SDS_P2;PMS_P1;PMS_P2;Temp;Humidity;BMP_temperature;BMP_pressure;BME280_temperature;BME280_humidity;BME280_pressure;Samples;Min_cycle;Max_cycle;Signal;HPM_P1;HPM_P2
2021/07/03 00:02:17;;;;;;;;;;;;;;;26.26;52.48;100813.34;5037316;28;1312;-72
2021/07/03 00:05:03;;;;;;;;;;;;;;;26.27;51.98;100808.84;5039958;28;1075;-70
2021/07/03 00:07:48;;;;;;;;;;;;;;;26.24;52.50;100812.63;5048448;28;1705;-69
2021/07/03 00:10:34;;;;;;;;;;;;;;;26.24;52.28;100812.63;5048296;28;659;-69
2021/07/03 00:13:19;;;;;;;;;;;;;;;26.23;51.63;100810.97;5047950;28;1983;-69
2021/07/03 00:16:05;;;;;;;;;;;;;;;26.22;52.65;100811.94;5048137;28;718;-68
2021/07/03 00:18:50;;;;;;;;;;;;;;;26.22;52.65;100811.94;5046657;28;1476;-69
2021/07/03 00:21:37;;;;;;;;;;;;;;;26.23;53.20;100813.63;5047977;28;1219;-69
2021/07/03 00:24:22;;;;;;;;;;;;;;;26.24;54.09;100812.63;5046615;28;636;-72
2021/07/03 00:27:08;;;;;;;;;;;;;;;26.23;54.24;100818.13;5047792;28;1278;-69
2021/07/03 00:29:53;;;;;;;;;;;;;;;26.22;55.13;100819.94;5047816;28;785;-69
2021/07/03 00:32:38;;;;;;;;;;;;;;;26.23;54.98;100813.63;5048029;28;1241;-70
2021/07/03 00:35:24;;;;;;;;;;;;;;;26.22;55.82;100811.94;5048664;28;691;-69
2021/07/03 00:38:09;;;;;;;;;;;;;;;26.24;56.11;100817.13;5048490;28;1268;-69
2021/07/03 00:40:55;;;;;;;;;;;;;;;26.24;56.43;100814.44;5061657;28;698;-69
2021/07/03 00:43:40;;;;;;;;;;;;;;;26.23;56.74;100815.44;5049118;28;1265;-69
2021/07/03 00:46:25;;;;;;;;;;;;;;;26.22;56.46;100819.09;5061467;28;1125;-70
2021/07/03 00:49:11;;;;;;;;;;;;;;;26.21;56.77;100812.91;5061062;28;686;-69
2021/07/03 00:51:56;;;;;;;;;;;;;;;26.19;57.02;100812.19;5047837;28;1250;-70
2021/07/03 00:54:44;;;;;;;;;;;;;;;26.20;56.67;100808.56;5048402;28;1976;-70
2021/07/03 00:57:31;;;;;;;;;;;;;;;26.20;56.81;100808.56;5048689;28;1231;-71
2021/07/03 01:00:16;;;;;;;;;;;;;;;26.21;55.84;100810.22;5061191;28;682;-70
2021/07/03 01:03:02;;;;;;;;;;;;;;;26.22;55.75;100805.72;5061139;28;1350;-69
2021/07/03 01:05:50;;;;;;;;;;;;;;;26.20;55.29;100811.22;5048474;28;683;-70
2021/07/03 01:08:35;;;;;;;;;;;;;;;26.19;55.50;100804.19;5048717;28;1268;-70
2021/07/03 01:11:27;;;;;;;;;;;;;;;26.19;55.48;100806.84;5048124;28;663;-72
2021/07/03 01:14:13;;;;;;;;;;;;;;;26.19;55.83;100806.00;5061138;28;1961;-72
2021/07/03 01:16:58;;;;;;;;;;;;;;;26.18;55.68;100805.16;5048544;28;1248;-71
2021/07/03 01:19:44;;;;;;;;;;;;;;;26.18;56.44;100810.50;5048022;28;1239;-72
2021/07/03 01:22:30;;;;;;;;;;;;;;;26.19;56.51;100811.34;5060542;28;1294;-72
2021/07/03 01:25:16;;;;;;;;;;;;;;;26.17;56.87;100798.16;5047971;28;581;-69
2021/07/03 01:28:03;;;;;;;;;;;;;;;26.17;58.04;100795.47;5048129;28;1358;-71
2021/07/03 01:30:49;;;;;;;;;;;;;;;26.16;57.78;100790.25;5048351;28;699;-70
2021/07/03 01:33:44;;;;;;;;;;;;;;;26.17;58.64;100791.97;5047838;28;1971;-71
2021/07/03 01:36:30;;;;;;;;;;;;;;;26.14;59.01;100793.03;5048082;28;1262;-71
2021/07/03 01:39:16;;;;;;;;;;;;;;;26.15;58.77;100783.19;5048131;28;612;-70
2021/07/03 01:42:02;;;;;;;;;;;;;;;26.13;59.86;100780.66;5047783;28;1260;-70
2021/07/03 01:44:49;;;;;;;;;;;;;;;26.14;58.76;100779.69;5047590;28;652;-70
2021/07/03 01:47:40;;;;;;;;;;;;;;;26.13;59.71;100777.13;5047312;28;1268;-70
2021/07/03 01:50:26;;;;;;;;;;;;;;;26.12;59.40;100775.44;5050971;28;834;-70
2021/07/03 01:53:11;;;;;;;;;;;;;;;26.11;59.50;100769.28;5050492;28;1987;-71
2021/07/03 01:55:57;;;;;;;;;;;;;;;26.14;59.71;100774.34;5050645;28;639;-70
2021/07/03 01:58:42;;;;;;;;;;;;;;;26.16;59.75;100774.25;5052264;28;1377;-70
2021/07/03 02:01:28;;;;;;;;;;;;;;;26.12;59.56;100772.78;5051535;28;1124;-72
2021/07/03 02:04:13;;;;;;;;;;;;;;;26.11;59.47;100781.78;5050399;28;730;-71
2021/07/03 02:06:58;;;;;;;;;;;;;;;26.08;59.64;100780.22;5051936;28;1256;-71
2021/07/03 02:09:44;;;;;;;;;;;;;;;26.08;60.69;100777.56;5052184;28;608;-71
2021/07/03 02:12:29;;;;;;;;;;;;;;;26.08;59.78;100773.03;5051743;28;1272;-70
2021/07/03 02:15:14;;;;;;;;;;;;;;;26.07;59.40;100771.38;5051302;28;1942;-71
2021/07/03 02:17:59;;;;;;;;;;;;;;;26.08;59.60;100777.56;5064131;28;1447;-70
2021/07/03 02:20:45;;;;;;;;;;;;;;;26.06;60.58;100775.00;5051811;28;581;-71
2021/07/03 02:23:30;;;;;;;;;;;;;;;26.04;61.27;100768.97;5051803;28;1223;-72
2021/07/03 02:26:15;;;;;;;;;;;;;;;26.05;60.64;100773.31;5051471;28;670;-70
2021/07/03 02:29:01;;;;;;;;;;;;;;;26.04;60.64;100771.63;5051315;28;663;-73
2021/07/03 02:31:46;;;;;;;;;;;;;;;26.06;60.92;100763.47;5051594;28;1345;-70
2021/07/03 02:34:31;;;;;;;;;;;;;;;26.06;60.88;100763.47;5052724;28;1959;-70
2021/07/03 02:37:17;;;;;;;;;;;;;;;26.05;60.48;100759.16;5051288;28;1250;-70
2021/07/03 02:40:03;;;;;;;;;;;;;;;26.04;61.32;100762.78;5051459;28;635;-69
2021/07/03 02:42:49;;;;;;;;;;;;;;;26.03;61.52;100753.06;5049678;28;1244;-68
2021/07/03 02:45:34;;;;;;;;;;;;;;;26.04;60.96;100754.78;5063808;28;706;-70
2021/07/03 02:48:19;;;;;;;;;;;;;;;26.05;60.89;100745.78;5051134;28;1274;-69
2021/07/03 02:51:05;;;;;;;;;;;;;;;26.04;60.64;100744.09;5051103;28;718;-69
2021/07/03 02:53:50;;;;;;;;;;;;;;;26.01;60.62;100741.69;5050704;28;1898;-69
2021/07/03 02:56:35;;;;;;;;;;;;;;;26.00;60.52;100746.19;5050648;28;1340;-69
2021/07/03 02:59:21;;;;;;;;;;;;;;;26.01;60.94;100750.56;5050695;28;667;-71
2021/07/03 03:02:08;;;;;;;;;;;;;;;26.02;61.29;100751.41;5062059;28;1260;-70
2021/07/03 03:04:53;;;;;;;;;;;;;;;26.02;61.06;100751.41;5050537;28;604;-70
2021/07/03 03:07:39;;;;;;;;;;;;;;;26.01;60.31;100744.38;5050798;28;1243;-70
2021/07/03 03:10:25;;;;;;;;;;;;;;;26.00;60.97;100737.31;5050272;28;722;-70
2021/07/03 03:13:10;;;;;;;;;;;;;;;26.01;60.87;100739.03;5050661;28;1264;-71
2021/07/03 03:15:55;;;;;;;;;;;;;;;26.00;60.61;100740.84;5062882;28;726;-70
2021/07/03 03:18:41;;;;;;;;;;;;;;;26.00;60.26;100734.66;5050002;28;1240;-70
2021/07/03 03:21:26;;;;;;;;;;;;;;;26.03;60.35;100737.06;5049957;28;903;-70
2021/07/03 03:24:11;;;;;;;;;;;;;;;26.03;60.24;100734.38;5050131;28;732;-69
2021/07/03 03:26:56;;;;;;;;;;;;;;;26.02;60.44;100735.38;5050447;28;1333;-70
2021/07/03 03:29:42;;;;;;;;;;;;;;;26.00;60.23;100734.66;5062801;28;580;-70
2021/07/03 03:32:27;;;;;;;;;;;;;;;26.03;60.14;100739.72;5050189;28;1336;-69
2021/07/03 03:35:12;;;;;;;;;;;;;;;26.00;60.00;100745.34;5049949;28;1989;-70
2021/07/03 03:37:57;;;;;;;;;;;;;;;25.98;60.84;100745.47;5050103;28;1351;-69
2021/07/03 03:40:43;;;;;;;;;;;;;;;25.99;59.62;100746.34;5062912;28;667;-71
2021/07/03 03:43:28;;;;;;;;;;;;;;;25.98;59.21;100749.97;5050616;28;1239;-72
2021/07/03 03:46:14;;;;;;;;;;;;;;;25.97;59.36;100745.59;5049945;28;588;-71
2021/07/03 03:49:00;;;;;;;;;;;;;;;25.96;60.16;100747.41;5048836;28;1262;-71
2021/07/03 03:51:49;;;;;;;;;;;;;;;25.95;60.49;100744.91;5049878;28;1406;-71
2021/07/03 03:54:34;;;;;;;;;;;;;;;25.96;60.09;100751.94;5049551;28;1902;-70
2021/07/03 03:57:23;;;;;;;;;;;;;;;25.94;59.70;100753.88;5049638;28;1447;-71
2021/07/03 04:00:09;;;;;;;;;;;;;;;25.94;60.09;100753.88;5049296;28;683;-70
2021/07/03 04:02:55;;;;;;;;;;;;;;;25.93;59.48;100757.53;5062272;28;1263;-70
2021/07/03 04:05:41;;;;;;;;;;;;;;;25.93;59.85;100752.19;5062356;28;638;-70
2021/07/03 04:08:26;;;;;;;;;;;;;;;25.90;59.56;100760.47;5049675;28;1284;-71
2021/07/03 04:11:12;;;;;;;;;;;;;;;25.90;59.65;100753.28;5049653;28;718;-70
2021/07/03 04:13:57;;;;;;;;;;;;;;;25.90;59.87;100757.81;5049004;28;1902;-69
2021/07/03 04:16:42;;;;;;;;;;;;;;;25.89;59.29;100746.28;5049039;28;1216;-70
2021/07/03 04:19:27;;;;;;;;;;;;;;;25.88;59.79;100741.06;5061688;28;1353;-70
2021/07/03 04:22:13;;;;;;;;;;;;;;;25.88;59.23;100754.41;5048756;28;1273;-69
2021/07/03 04:24:58;;;;;;;;;;;;;;;25.89;59.98;100756.09;5048748;28;605;-69
2021/07/03 04:27:44;;;;;;;;;;;;;;;25.88;59.75;100755.25;5049408;28;1227;-69
2021/07/03 04:30:29;;;;;;;;;;;;;;;25.87;59.86;100755.41;5048735;28;690;-69
2021/07/03 04:33:15;;;;;;;;;;;;;;;25.86;59.88;100751.88;5049587;28;1203;-71
2021/07/03 04:36:00;;;;;;;;;;;;;;;25.88;59.70;100757.94;5048862;28;1950;-72
2021/07/03 04:38:45;;;;;;;;;;;;;;;25.87;59.85;100750.88;5049389;28;1326;-72
2021/07/03 04:41:31;;;;;;;;;;;;;;;25.87;60.23;100758.06;5048526;28;1592;-72
2021/07/03 04:44:17;;;;;;;;;;;;;;;25.86;59.54;100756.38;5048801;28;694;-71
2021/07/03 04:47:03;;;;;;;;;;;;;;;25.87;59.20;100755.41;5061100;28;1330;-71
2021/07/03 04:49:48;;;;;;;;;;;;;;;25.86;59.63;100751.03;5048159;28;663;-71
2021/07/03 04:52:34;;;;;;;;;;;;;;;25.87;59.28;100750.88;5048866;28;1350;-71
2021/07/03 04:55:20;;;;;;;;;;;;;;;25.88;58.73;100757.94;5048827;28;1906;-71
2021/07/03 04:58:05;;;;;;;;;;;;;;;25.88;59.65;100755.25;5048413;28;1217;-71
2021/07/03 05:00:50;;;;;;;;;;;;;;;25.91;59.86;100759.47;5060769;28;770;-71
2021/07/03 05:03:36;;;;;;;;;;;;;;;25.90;58.81;100757.81;5048269;28;1291;-70
2021/07/03 05:06:21;;;;;;;;;;;;;;;25.88;59.36;100757.06;5047816;28;655;-71
2021/07/03 05:09:06;;;;;;;;;;;;;;;25.88;59.13;100762.41;5047972;28;639;-71
2021/07/03 05:11:52;;;;;;;;;;;;;;;25.87;59.67;100760.75;5046690;28;1720;-71
2021/07/03 05:14:37;;;;;;;;;;;;;;;25.86;59.29;100761.72;5034635;28;1898;-70
2021/07/03 05:17:23;;;;;;;;;;;;;;;25.86;59.17;100761.72;5028481;28;1282;-70
2021/07/03 05:20:09;;;;;;;;;;;;;;;25.87;59.09;100763.41;5028182;28;762;-70
2021/07/03 05:22:54;;;;;;;;;;;;;;;25.89;58.73;100761.44;5028351;28;1334;-69
2021/07/03 05:25:41;;;;;;;;;;;;;;;25.90;58.96;100763.16;5028728;28;616;-71
2021/07/03 05:28:27;;;;;;;;;;;;;;;25.88;58.45;100771.28;5028346;28;1630;-70
2021/07/03 05:31:12;;;;;;;;;;;;;;;25.91;58.69;100754.13;5035369;28;670;-71
2021/07/03 05:33:58;;;;;;;;;;;;;;;25.84;59.42;100756.50;5061416;28;1977;-70
2021/07/03 05:36:46;;;;;;;;;;;;;;;25.93;58.78;100757.53;5048150;28;1296;-69
2021/07/03 05:39:32;;;;;;;;;;;;;;;25.92;59.17;100755.84;5048367;28;709;-74
2021/07/03 05:42:18;;;;;;;;;;;;;;;25.92;58.78;100770.03;5048355;28;1252;-71
2021/07/03 05:45:04;;;;;;;;;;;;;;;25.92;58.16;100758.50;5048424;28;711;-73
2021/07/03 05:47:51;;;;;;;;;;;;;;;25.93;58.55;100762.88;5060920;28;1330;-73
2021/07/03 05:50:36;;;;;;;;;;;;;;;25.93;58.84;100754.88;5048207;28;695;-73
2021/07/03 05:53:22;;;;;;;;;;;;;;;25.95;58.46;100761.75;5048121;28;1261;-70
2021/07/03 05:56:08;;;;;;;;;;;;;;;25.96;58.70;100759.94;5033531;28;1902;-70
2021/07/03 05:58:55;;;;;;;;;;;;;;;25.95;58.54;100763.59;5027835;28;1339;-70
2021/07/03 06:01:40;;;;;;;;;;;;;;;25.94;59.37;100775.22;5027662;28;1244;-72
2021/07/03 06:04:26;;;;;;;;;;;;;;;25.95;58.86;100776.94;5055383;28;1075;-69
2021/07/03 06:07:11;;;;;;;;;;;;;;;25.92;59.35;100786.06;5044566;28;1292;-70
2021/07/03 06:09:56;;;;;;;;;;;;;;;25.93;59.33;100792.25;5044692;28;1075;-68
2021/07/03 06:12:42;;;;;;;;;;;;;;;25.92;59.47;100788.72;5042789;28;1330;-70
2021/07/03 06:15:28;;;;;;;;;;;;;;;25.93;59.23;100789.56;5046609;28;1906;-70
2021/07/03 06:18:13;;;;;;;;;;;;;;;25.94;59.46;100785.91;5044039;28;1443;-71
2021/07/03 06:20:59;;;;;;;;;;;;;;;25.95;59.28;100790.28;5045209;28;1027;-72
2021/07/03 06:23:44;;;;;;;;;;;;;;;25.95;59.18;100787.59;5046277;28;1390;-70
2021/07/03 06:26:30;;;;;;;;;;;;;;;25.92;59.42;100783.38;5044051;28;1129;-71
2021/07/03 06:29:15;;;;;;;;;;;;;;;25.97;59.08;100788.31;5044729;28;1198;-72
2021/07/03 06:32:01;;;;;;;;;;;;;;;25.98;58.91;100792.66;5045374;28;1410;-71
2021/07/03 06:34:47;;;;;;;;;;;;;;;25.99;58.97;100783.69;5043993;28;1898;-71
2021/07/03 06:37:33;;;;;;;;;;;;;;;25.99;59.55;100783.69;5048026;28;1308;-68
2021/07/03 06:40:18;;;;;;;;;;;;;;;26.00;59.05;100774.69;5048260;28;1043;-71
2021/07/03 06:43:03;;;;;;;;;;;;;;;26.01;59.07;100773.72;5049625;28;1351;-70
2021/07/03 06:45:49;;;;;;;;;;;;;;;26.02;58.96;100767.41;5049526;28;1356;-69
2021/07/03 06:48:34;;;;;;;;;;;;;;;26.04;59.14;100763.63;5049236;28;1295;-71
2021/07/03 06:51:19;;;;;;;;;;;;;;;26.05;58.90;100767.16;5048507;28;1099;-69
2021/07/03 06:54:05;;;;;;;;;;;;;;;26.06;58.82;100763.47;5048679;28;1119;-68
2021/07/03 06:56:57;;;;;;;;;;;;;;;26.07;59.05;100766.03;5046814;28;1256;-69
2021/07/03 06:59:42;;;;;;;;;;;;;;;26.06;58.82;100769.66;5048578;28;1068;-72
2021/07/03 07:02:28;;;;;;;;;;;;;;;26.06;58.87;100775.00;5049550;28;1320;-70
2021/07/03 07:05:13;;;;;;;;;;;;;;;26.05;58.91;100775.16;5049371;28;952;-70
2021/07/03 07:07:58;;;;;;;;;;;;;;;26.13;58.62;100774.47;5049926;28;1301;-69
2021/07/03 07:10:44;;;;;;;;;;;;;;;26.14;57.99;100777.03;5048697;28;1034;-68
2021/07/03 07:13:29;;;;;;;;;;;;;;;26.10;58.36;100780.94;5049712;28;1395;-68
2021/07/03 07:16:15;;;;;;;;;;;;;;;26.10;58.47;100786.25;5047210;28;1913;-67
2021/07/03 07:19:00;;;;;;;;;;;;;;;26.14;57.89;100779.69;5047690;28;1665;-67
2021/07/03 07:21:45;;;;;;;;;;;;;;;26.19;57.67;100785.50;5048565;28;1280;-66
2021/07/03 07:24:31;;;;;;;;;;;;;;;26.16;57.26;100783.09;5047720;28;1071;-66
2021/07/03 07:27:16;;;;;;;;;;;;;;;26.19;57.42;100779.31;5048699;28;1343;-66
2021/07/03 07:30:02;;;;;;;;;;;;;;;26.21;57.46;100783.53;5046407;28;1134;-66
2021/07/03 07:32:47;;;;;;;;;;;;;;;26.20;57.29;100784.53;5048749;28;1279;-68
2021/07/03 07:35:33;;;;;;;;;;;;;;;26.20;57.22;100784.53;5042011;28;1959;-66
2021/07/03 07:38:18;;;;;;;;;;;;;;;26.22;57.53;100781.72;5045843;28;1333;-64
2021/07/03 07:41:05;;;;;;;;;;;;;;;26.22;57.23;100785.22;5045646;28;1294;-64
2021/07/03 07:43:50;;;;;;;;;;;;;;;26.21;57.60;100794.19;5045123;28;1347;-64
2021/07/03 07:46:37;;;;;;;;;;;;;;;26.21;57.21;100796.88;5044267;28;1418;-63
2021/07/03 07:49:23;;;;;;;;;;;;;;;26.28;58.11;100783.84;5047938;28;950;-62
2021/07/03 07:52:08;;;;;;;;;;;;;;;26.26;57.37;100780.47;5046881;28;1367;-69
2021/07/03 07:54:53;;;;;;;;;;;;;;;26.25;57.64;100779.63;5046947;28;1894;-67
2021/07/03 07:57:39;;;;;;;;;;;;;;;26.23;56.88;100770.91;5046248;28;1312;-67
2021/07/03 08:00:24;;;;;;;;;;;;;;;26.25;57.24;100768.94;5047249;28;1078;-69
2021/07/03 08:03:11;;;;;;;;;;;;;;;26.26;57.04;100765.28;5044362;28;1317;-68
2021/07/03 08:05:57;;;;;;;;;;;;;;;26.29;57.36;100773.03;5048244;28;1046;-68
2021/07/03 08:08:43;;;;;;;;;;;;;;;26.31;57.28;100764.88;5047468;28;1338;-75
2021/07/03 08:11:31;;;;;;;;;;;;;;;26.30;57.06;100761.34;5041960;28;1279;-70
2021/07/03 08:14:16;;;;;;;;;;;;;;;26.29;57.15;100765.03;5048439;28;1071;-71
2021/07/03 08:17:02;;;;;;;;;;;;;;;26.35;57.40;100758.28;5048082;28;1382;-70
2021/07/03 08:19:50;;;;;;;;;;;;;;;26.34;57.26;100751.25;5046847;28;1238;-71
2021/07/03 08:22:36;;;;;;;;;;;;;;;26.36;57.19;100758.13;5049518;28;1425;-70
2021/07/03 08:25:24;;;;;;;;;;;;;;;26.39;57.01;100759.69;5049502;28;694;-68
2021/07/03 08:28:10;;;;;;;;;;;;;;;26.43;56.62;100756.63;5049496;28;1303;-67
2021/07/03 08:30:55;;;;;;;;;;;;;;;26.43;56.42;100750.44;5049308;28;671;-71
2021/07/03 08:33:41;;;;;;;;;;;;;;;26.42;57.01;100746.06;5034654;28;1504;-68
2021/07/03 08:36:26;;;;;;;;;;;;;;;26.42;57.01;100744.25;5028636;28;1965;-69
2021/07/03 08:39:11;;;;;;;;;;;;;;;26.42;57.10;100743.38;5037358;28;1356;-70
2021/07/03 08:41:57;;;;;;;;;;;;;;;26.46;57.06;100750.16;5036844;28;1447;-71
2021/07/03 08:44:46;;;;;;;;;;;;;;;26.46;56.95;100744.81;5046982;28;1384;-67
2021/07/03 08:47:32;;;;;;;;;;;;;;;26.47;57.09;100736.69;5047899;28;1276;-70
2021/07/03 08:50:18;;;;;;;;;;;;;;;26.47;57.85;100744.69;5046879;28;797;-69
2021/07/03 08:53:07;;;;;;;;;;;;;;;26.49;57.75;100745.38;5048023;28;1256;-68
2021/07/03 08:55:53;;;;;;;;;;;;;;;26.52;58.65;100739.78;5048354;28;1914;-67
2021/07/03 08:58:38;;;;;;;;;;;;;;;26.53;58.17;100741.47;5049253;28;1351;-67
2021/07/03 09:01:24;;;;;;;;;;;;;;;26.58;58.25;100733.88;5048145;28;962;-66
2021/07/03 09:04:09;;;;;;;;;;;;;;;26.58;58.44;100739.22;5048347;28;679;-68
2021/07/03 09:06:55;;;;;;;;;;;;;;;26.54;58.21;100737.81;5048680;28;1466;-66
2021/07/03 09:09:40;;;;;;;;;;;;;;;26.56;59.41;100735.00;5048622;28;644;-67
2021/07/03 09:12:30;;;;;;;;;;;;;;;26.57;59.36;100736.69;5045147;28;1555;-69
2021/07/03 09:15:16;;;;;;;;;;;;;;;26.54;58.97;100731.59;5028280;28;1951;-68
2021/07/03 09:18:04;;;;;;;;;;;;;;;26.54;59.08;100739.63;5027126;28;1462;-69
2021/07/03 09:20:51;;;;;;;;;;;;;;;26.53;59.32;100735.28;5028104;28;631;-69
2021/07/03 09:23:38;;;;;;;;;;;;;;;26.52;58.52;100734.44;5028348;28;1260;-69
2021/07/03 09:26:24;;;;;;;;;;;;;;;26.53;58.99;100738.81;5027810;28;959;-69
2021/07/03 09:29:10;;;;;;;;;;;;;;;26.52;58.90;100731.75;5028574;28;653;-69
2021/07/03 09:32:05;;;;;;;;;;;;;;;26.51;58.97;100727.38;5027931;28;1248;-68
2021/07/03 09:34:50;;;;;;;;;;;;;;;26.53;58.86;100736.13;5027885;28;1906;-68
2021/07/03 09:37:36;;;;;;;;;;;;;;;26.54;58.58;100732.47;5028102;28;1250;-68
2021/07/03 09:40:21;;;;;;;;;;;;;;;26.53;58.80;100736.13;5028089;28;711;-68
2021/07/03 09:43:09;;;;;;;;;;;;;;;26.55;58.83;100733.31;5026451;28;1249;-67
2021/07/03 09:45:54;;;;;;;;;;;;;;;26.55;58.69;100734.16;5028027;28;687;-68
2021/07/03 09:48:48;;;;;;;;;;;;;;;26.54;58.89;100740.47;5027943;28;1263;-68
2021/07/03 09:51:36;;;;;;;;;;;;;;;26.53;58.93;100741.47;5026900;28;1115;-69
2021/07/03 09:54:26;;;;;;;;;;;;;;;26.53;59.28;100735.28;5027565;28;643;-68
2021/07/03 09:57:12;;;;;;;;;;;;;;;26.53;59.23;100730.78;5027549;28;2003;-69
2021/07/03 09:59:57;;;;;;;;;;;;;;;26.55;59.24;100727.97;5027526;28;679;-68
2021/07/03 10:02:43;;;;;;;;;;;;;;;26.55;59.15;100734.16;5028003;28;1283;-65
2021/07/03 10:05:28;;;;;;;;;;;;;;;26.55;59.38;100744.84;5027485;28;561;-68
2021/07/03 10:08:18;;;;;;;;;;;;;;;26.57;59.67;100732.19;5028075;28;1244;-68
2021/07/03 10:11:04;;;;;;;;;;;;;;;26.52;58.87;100729.09;5030445;28;692;-69
2021/07/03 10:13:56;;;;;;;;;;;;;;;26.57;58.84;100732.19;5031628;28;1291;-68
2021/07/03 10:16:42;;;;;;;;;;;;;;;26.57;58.75;100734.00;5031429;28;1971;-68
2021/07/03 10:19:35;;;;;;;;;;;;;;;26.58;59.00;100727.69;5031511;28;1440;-68
2021/07/03 10:22:22;;;;;;;;;;;;;;;26.60;58.79;100734.56;5030196;28;1341;-68
2021/07/03 10:25:15;;;;;;;;;;;;;;;26.62;58.63;100745.13;5031900;28;608;-68
2021/07/03 10:28:02;;;;;;;;;;;;;;;26.59;58.80;100737.41;5031779;28;1236;-67
2021/07/03 10:30:49;;;;;;;;;;;;;;;26.57;57.90;100726.84;5031653;28;640;-68
2021/07/03 10:33:40;;;;;;;;;;;;;;;26.60;59.06;100725.72;5030935;28;1346;-68
2021/07/03 10:36:31;;;;;;;;;;;;;;;26.60;58.58;100721.22;5030929;28;1963;-67
2021/07/03 10:39:18;;;;;;;;;;;;;;;26.60;58.55;100726.56;5030965;28;1027;-68
2021/07/03 10:42:04;;;;;;;;;;;;;;;26.63;58.17;100729.97;5030792;28;1327;-68
2021/07/03 10:44:49;;;;;;;;;;;;;;;26.60;58.36;100725.72;5030903;28;930;-68
2021/07/03 10:47:35;;;;;;;;;;;;;;;26.60;58.21;100720.38;5030998;28;1248;-67
2021/07/03 10:50:25;;;;;;;;;;;;;;;26.63;57.76;100723.63;5029727;28;703;-67
2021/07/03 10:53:20;;;;;;;;;;;;;;;26.63;58.09;100720.94;5030613;28;1260;-67
2021/07/03 10:56:10;;;;;;;;;;;;;;;26.63;58.00;100719.28;5031013;28;1906;-67
2021/07/03 10:58:55;;;;;;;;;;;;;;;26.64;57.78;100721.78;5030911;28;1355;-66
2021/07/03 11:01:41;;;;;;;;;;;;;;;26.64;57.64;100719.13;5030736;28;1610;-67
2021/07/03 11:04:26;;;;;;;;;;;;;;;26.65;57.55;100718.16;5030742;28;647;-67
2021/07/03 11:07:12;;;;;;;;;;;;;;;26.64;57.64;100713.78;5029705;28;1275;-67
2021/07/03 11:10:12;;;;;;;;;;;;;;;26.65;57.78;100714.63;5030522;28;683;-68
2021/07/03 11:12:59;;;;;;;;;;;;;;;26.65;57.77;100717.28;5029162;28;1263;-68
2021/07/03 11:15:45;;;;;;;;;;;;;;;26.65;58.01;100718.16;5030078;28;1969;-68
2021/07/03 11:18:33;;;;;;;;;;;;;;;26.67;57.74;100709.97;5030444;28;1610;-67
2021/07/03 11:21:18;;;;;;;;;;;;;;;26.68;57.74;100703.66;5029568;28;687;-67
2021/07/03 11:24:19;;;;;;;;;;;;;;;26.69;57.97;100708.84;5029932;28;1258;-67
2021/07/03 11:27:04;;;;;;;;;;;;;;;26.71;57.61;100708.72;5030418;28;1268;-67
2021/07/03 11:29:49;;;;;;;;;;;;;;;26.71;57.88;100711.41;5029902;28;699;-67
2021/07/03 11:32:35;;;;;;;;;;;;;;;26.76;58.44;100717.16;5030373;28;1257;-67
2021/07/03 11:35:21;;;;;;;;;;;;;;;26.78;59.08;100701.84;5030267;28;1973;-69
2021/07/03 11:38:06;;;;;;;;;;;;;;;26.83;58.70;100710.31;5043611;28;1316;-71
2021/07/03 11:40:53;;;;;;;;;;;;;;;26.84;58.62;100714.69;5052972;28;847;-72
2021/07/03 11:43:39;;;;;;;;;;;;;;;26.84;58.57;100702.13;5060317;28;1303;-67
2021/07/03 11:46:24;;;;;;;;;;;;;;;26.90;58.60;100698.91;5064487;28;1169;-69
2021/07/03 11:49:09;;;;;;;;;;;;;;;26.89;58.68;100688.38;5037002;28;1011;-70
2021/07/03 11:52:01;;;;;;;;;;;;;;;26.88;58.87;100694.69;5048043;28;1421;-70
2021/07/03 11:54:46;;;;;;;;;;;;;;;26.88;58.67;100697.34;5048233;28;1007;-65
2021/07/03 11:57:42;;;;;;;;;;;;;;;26.91;59.31;100687.22;5044697;28;1910;-68
2021/07/03 12:00:33;;;;;;;;;;;;;;;26.95;58.18;100677.09;5048043;28;1045;-69
2021/07/03 12:03:22;;;;;;;;;;;;;;;26.98;58.62;100671.47;5046703;28;1290;-69
2021/07/03 12:06:07;;;;;;;;;;;;;;;26.99;58.57;100683.88;5046955;28;1056;-68
2021/07/03 12:08:53;;;;;;;;;;;;;;;27.00;58.59;100682.88;5046285;28;1245;-72
2021/07/03 12:11:38;;;;;;;;;;;;;;;26.98;58.83;100677.66;5045544;28;1382;-68
2021/07/03 12:14:25;;;;;;;;;;;;;;;26.94;59.18;100672.75;5047576;28;999;-68
2021/07/03 12:17:17;;;;;;;;;;;;;;;26.91;59.26;100676.53;5045311;28;1902;-68
2021/07/03 12:20:03;;;;;;;;;;;;;;;26.76;57.29;100672.56;5049058;28;1217;-68
2021/07/03 12:22:57;;;;;;;;;;;;;;;26.65;56.55;100671.88;5047482;28;1375;-69
2021/07/03 12:25:49;;;;;;;;;;;;;;;26.58;55.10;100667.09;5046934;28;1084;-68
2021/07/03 12:28:50;;;;;;;;;;;;;;;26.50;54.80;100668.78;5048150;28;1314;-69
2021/07/03 12:31:37;;;;;;;;;;;;;;;26.40;54.52;100671.44;5045767;28;1114;-68
2021/07/03 12:34:26;;;;;;;;;;;;;;;26.35;54.49;100668.34;5046845;28;1100;-69
2021/07/03 12:37:13;;;;;;;;;;;;;;;26.26;53.69;100666.50;5047272;28;1910;-71
2021/07/03 12:40:09;;;;;;;;;;;;;;;26.28;53.91;100667.19;5053900;28;1249;-72
2021/07/03 12:42:58;;;;;;;;;;;;;;;26.20;53.95;100653.72;5044075;28;1367;-72
2021/07/03 12:46:04;;;;;;;;;;;;;;;26.16;54.10;100656.78;5043884;28;1063;-70
2021/07/03 12:48:58;;;;;;;;;;;;;;;26.11;55.42;100650.97;5046607;28;1315;-73
2021/07/03 12:51:44;;;;;;;;;;;;;;;26.03;55.84;100652.50;5045654;28;1315;-70
2021/07/03 12:54:29;;;;;;;;;;;;;;;26.00;56.13;100649.25;5046372;28;1055;-73
2021/07/03 12:57:14;;;;;;;;;;;;;;;26.03;56.50;100659.66;5043293;28;1902;-71
2021/07/03 13:00:00;;;;;;;;;;;;;;;26.03;56.86;100652.50;5046195;28;1080;-71
2021/07/03 13:02:46;;;;;;;;;;;;;;;25.95;56.87;100659.50;5045277;28;1338;-70
2021/07/03 13:05:31;;;;;;;;;;;;;;;25.92;57.22;100659.78;5047848;28;1442;-70
2021/07/03 13:08:17;;;;;;;;;;;;;;;26.00;56.21;100667.94;5045544;28;1245;-67
2021/07/03 13:11:03;;;;;;;;;;;;;;;25.99;56.78;100667.09;5045942;28;1016;-69
2021/07/03 13:13:49;;;;;;;;;;;;;;;25.94;57.51;100666.66;5046723;28;1331;-69
2021/07/03 13:16:35;;;;;;;;;;;;;;;25.94;57.70;100668.47;5044689;28;1964;-70
2021/07/03 13:19:20;;;;;;;;;;;;;;;25.96;56.86;100655.88;5045050;28;1447;-71
2021/07/03 13:22:06;;;;;;;;;;;;;;;25.91;57.30;100658.06;5047050;28;1284;-76
2021/07/03 13:24:52;;;;;;;;;;;;;;;25.77;57.15;100640.63;5042137;28;1175;-71
2021/07/03 13:27:37;;;;;;;;;;;;;;;25.89;56.73;100681.38;5045109;28;1274;-74
2021/07/03 13:30:23;;;;;;;;;;;;;;;25.86;56.71;100670.97;5046312;28;1138;-73
2021/07/03 13:33:08;;;;;;;;;;;;;;;25.82;56.25;100674.88;5046839;28;1304;-75
2021/07/03 13:35:54;;;;;;;;;;;;;;;25.84;56.30;100662.28;5044748;28;1914;-77
2021/07/03 13:38:39;;;;;;;;;;;;;;;25.76;55.97;100665.59;5045340;28;1347;-75
2021/07/03 13:41:25;;;;;;;;;;;;;;;25.73;56.22;100671.22;5046289;28;1194;-72
2021/07/03 13:44:11;;;;;;;;;;;;;;;25.58;56.81;100666.38;5043786;28;1177;-74
2021/07/03 13:46:56;;;;;;;;;;;;;;;25.58;57.05;100674.38;5044966;28;1328;-73
2021/07/03 13:49:41;;;;;;;;;;;;;;;25.56;56.74;100685.19;5046199;28;1182;-75
2021/07/03 13:52:27;;;;;;;;;;;;;;;25.51;56.94;100692.72;5046312;28;1472;-73
2021/07/03 13:55:12;;;;;;;;;;;;;;;25.46;56.97;100682.44;5044159;28;1149;-73
2021/07/03 13:57:59;;;;;;;;;;;;;;;25.41;56.82;100692.63;5044230;28;1969;-71
2021/07/03 14:00:45;;;;;;;;;;;;;;;25.37;56.32;100685.88;5045761;28;1105;-74
2021/07/03 14:03:30;;;;;;;;;;;;;;;25.37;56.58;100679.69;5043760;28;1389;-69
2021/07/03 14:06:16;;;;;;;;;;;;;;;25.24;56.73;100660.38;5044266;28;1187;-70
2021/07/03 14:09:03;;;;;;;;;;;;;;;25.36;57.09;100678.00;5044016;28;1359;-70
2021/07/03 14:11:48;;;;;;;;;;;;;;;25.39;57.08;100675.06;5045902;28;1316;-70
2021/07/03 14:14:35;;;;;;;;;;;;;;;25.37;57.10;100675.22;5044633;28;1352;-68
2021/07/03 14:17:21;;;;;;;;;;;;;;;25.33;57.56;100667.59;5044813;28;1961;-69
2021/07/03 14:20:07;;;;;;;;;;;;;;;25.32;57.17;100672.06;5045487;28;1241;-69
2021/07/03 14:22:56;;;;;;;;;;;;;;;25.32;57.44;100663.25;5042985;28;1340;-73
2021/07/03 14:25:41;;;;;;;;;;;;;;;25.34;57.40;100675.47;5046248;28;1181;-73
2021/07/03 14:28:26;;;;;;;;;;;;;;;25.39;57.63;100669.72;5055240;28;1312;-73
2021/07/03 14:31:12;;;;;;;;;;;;;;;25.41;57.72;100668.63;5044137;28;1198;-72